sensor_id;sensor_type;location;lat;lon;timestamp;pressure;altitude;pressure_sealevel;temperature;humidity
9460;BME280;4768;42.664;23.240;2023-03-04T00:00:07;-9533.00;;;4.32;100.00
9460;BME280;4768;42.664;23.240;2023-03-04T00:02:34;-9533.56;;;4.34;100.00
9460;BME280;4768;42.664;23.240;2023-03-04T00:05:01;-9534.13;;;4.36;100.00
9460;BME280;4768;42.664;23.240;2023-03-04T00:07:29;-9534.41;;;4.37;100.00
9460;BME280;4768;42.664;23.240;2023-03-04T00:09:55;-9535.13;;;4.39;100.00
9460;BME280;4768;42.664;23.240;2023-03-04T00:12:22;-9535.41;;;4.40;100.00
9460;BME280;4768;42.664;23.240;2023-03-04T00:14:51;-9534.53;;;4.37;100.00
9460;BME280;4768;42.664;23.240;2023-03-04T00:17:17;-9531.72;;;4.28;100.00
9460;BME280;4768;42.664;23.240;2023-03-04T00:19:44;-9531.16;;;4.26;100.00
9460;BME280;4768;42.664;23.240;2023-03-04T00:22:11;-9531.31;;;4.26;100.00
9460;BME280;4768;42.664;23.240;2023-03-04T00:24:38;-9529.75;;;4.21;100.00
9460;BME280;4768;42.664;23.240;2023-03-04T00:27:05;-9527.34;;;4.12;100.00
9460;BME280;4768;42.664;23.240;2023-03-04T00:29:31;-9524.78;;;4.03;100.00
9460;BME280;4768;42.664;23.240;2023-03-04T00:31:59;-9523.53;;;3.99;100.00
9460;BME280;4768;42.664;23.240;2023-03-04T00:34:26;-9521.13;;;3.90;100.00
9460;BME280;4768;42.664;23.240;2023-03-04T00:36:53;-9521.13;;;3.90;100.00
9460;BME280;4768;42.664;23.240;2023-03-04T00:39:25;-9521.13;;;3.90;100.00
9460;BME280;4768;42.664;23.240;2023-03-04T00:41:52;-9521.28;;;3.91;100.00
9460;BME280;4768;42.664;23.240;2023-03-04T00:44:18;-9520.72;;;3.89;100.00
9460;BME280;4768;42.664;23.240;2023-03-04T00:46:45;-9520.56;;;3.88;100.00
9460;BME280;4768;42.664;23.240;2023-03-04T00:49:13;-9520.72;;;3.89;100.00
9460;BME280;4768;42.664;23.240;2023-03-04T00:51:40;-9520.28;;;3.87;100.00
9460;BME280;4768;42.664;23.240;2023-03-04T00:54:07;-9520.13;;;3.87;100.00
9460;BME280;4768;42.664;23.240;2023-03-04T00:56:33;-9520.56;;;3.88;100.00
9460;BME280;4768;42.664;23.240;2023-03-04T00:59:00;-9521.41;;;3.91;100.00
9460;BME280;4768;42.664;23.240;2023-03-04T01:01:27;-9521.28;;;3.91;100.00
9460;BME280;4768;42.664;23.240;2023-03-04T01:03:54;-9521.56;;;3.92;100.00
9460;BME280;4768;42.664;23.240;2023-03-04T01:06:22;-9521.84;;;3.93;100.00
9460;BME280;4768;42.664;23.240;2023-03-04T01:08:48;-9522.13;;;3.94;100.00
9460;BME280;4768;42.664;23.240;2023-03-04T01:11:15;-9522.25;;;3.94;100.00
9460;BME280;4768;42.664;23.240;2023-03-04T01:13:42;-9522.13;;;3.94;100.00
9460;BME280;4768;42.664;23.240;2023-03-04T01:16:09;-9521.56;;;3.92;100.00
9460;BME280;4768;42.664;23.240;2023-03-04T01:18:37;-9521.41;;;3.91;100.00
9460;BME280;4768;42.664;23.240;2023-03-04T01:21:05;-9521.13;;;3.90;100.00
9460;BME280;4768;42.664;23.240;2023-03-04T01:23:33;-9520.56;;;3.88;100.00
9460;BME280;4768;42.664;23.240;2023-03-04T01:25:59;-9520.13;;;3.87;100.00
9460;BME280;4768;42.664;23.240;2023-03-04T01:28:26;-9519.84;;;3.86;100.00
9460;BME280;4768;42.664;23.240;2023-03-04T01:30:53;-9518.88;;;3.83;100.00
9460;BME280;4768;42.664;23.240;2023-03-04T01:33:20;-9518.44;;;3.81;100.00
9460;BME280;4768;42.664;23.240;2023-03-04T01:35:46;-9516.03;;;3.73;100.00
9460;BME280;4768;42.664;23.240;2023-03-04T01:38:13;-9515.06;;;3.69;100.00
9460;BME280;4768;42.664;23.240;2023-03-04T01:40:41;-9512.78;;;3.61;100.00
9460;BME280;4768;42.664;23.240;2023-03-04T01:43:11;-9511.81;;;3.58;100.00
9460;BME280;4768;42.664;23.240;2023-03-04T01:45:41;-9510.69;;;3.54;100.00
9460;BME280;4768;42.664;23.240;2023-03-04T01:48:09;-9509.41;;;3.49;100.00
9460;BME280;4768;42.664;23.240;2023-03-04T01:50:38;-9508.84;;;3.47;100.00
9460;BME280;4768;42.664;23.240;2023-03-04T01:53:05;-9509.53;;;3.50;100.00
9460;BME280;4768;42.664;23.240;2023-03-04T01:55:31;-9508.69;;;3.47;100.00
9460;BME280;4768;42.664;23.240;2023-03-04T01:58:00;-9508.56;;;3.46;100.00
9460;BME280;4768;42.664;23.240;2023-03-04T02:00:28;-9508.69;;;3.47;100.00
9460;BME280;4768;42.664;23.240;2023-03-04T02:02:59;-9508.13;;;3.45;100.00
9460;BME280;4768;42.664;23.240;2023-03-04T02:05:27;-9508.84;;;3.47;100.00
9460;BME280;4768;42.664;23.240;2023-03-04T02:07:54;-9507.84;;;3.44;100.00
9460;BME280;4768;42.664;23.240;2023-03-04T02:10:22;-9507.28;;;3.42;100.00
9460;BME280;4768;42.664;23.240;2023-03-04T02:12:50;-9508.00;;;3.44;100.00
9460;BME280;4768;42.664;23.240;2023-03-04T02:15:18;-9507.28;;;3.42;100.00
9460;BME280;4768;42.664;23.240;2023-03-04T02:17:45;-9507.72;;;3.43;100.00
9460;BME280;4768;42.664;23.240;2023-03-04T02:20:27;-9507.72;;;3.43;100.00
9460;BME280;4768;42.664;23.240;2023-03-04T02:23:00;-9507.56;;;3.43;100.00
9460;BME280;4768;42.664;23.240;2023-03-04T02:25:32;-9507.44;;;3.42;100.00
9460;BME280;4768;42.664;23.240;2023-03-04T02:28:02;-9506.88;;;3.40;100.00
9460;BME280;4768;42.664;23.240;2023-03-04T02:30:29;-9507.00;;;3.41;100.00
9460;BME280;4768;42.664;23.240;2023-03-04T02:32:56;-9507.56;;;3.43;100.00
9460;BME280;4768;42.664;23.240;2023-03-04T02:35:23;-9506.59;;;3.39;100.00
9460;BME280;4768;42.664;23.240;2023-03-04T02:37:50;-9505.44;;;3.35;100.00
9460;BME280;4768;42.664;23.240;2023-03-04T02:40:22;-9503.19;;;3.28;100.00
9460;BME280;4768;42.664;23.240;2023-03-04T02:42:50;-9502.22;;;3.24;100.00
9460;BME280;4768;42.664;23.240;2023-03-04T02:45:37;-9501.50;;;3.22;100.00
9460;BME280;4768;42.664;23.240;2023-03-04T02:48:05;-9500.22;;;3.17;100.00
9460;BME280;4768;42.664;23.240;2023-03-04T02:50:35;-9498.09;;;3.10;100.00
9460;BME280;4768;42.664;23.240;2023-03-04T02:53:02;-9497.25;;;3.07;100.00
9460;BME280;4768;42.664;23.240;2023-03-04T02:55:29;-9496.28;;;3.03;100.00
9460;BME280;4768;42.664;23.240;2023-03-04T02:57:56;-9496.69;;;3.05;100.00
9460;BME280;4768;42.664;23.240;2023-03-04T03:00:23;-9496.41;;;3.04;100.00
9460;BME280;4768;42.664;23.240;2023-03-04T03:02:51;-9495.28;;;3.00;100.00
9460;BME280;4768;42.664;23.240;2023-03-04T03:05:19;-9492.59;;;2.90;100.00
9460;BME280;4768;42.664;23.240;2023-03-04T03:07:45;-9491.91;;;2.88;100.00
9460;BME280;4768;42.664;23.240;2023-03-04T03:10:12;-9491.06;;;2.85;100.00
9460;BME280;4768;42.664;23.240;2023-03-04T03:12:39;-9488.50;;;2.76;100.00
9460;BME280;4768;42.664;23.240;2023-03-04T03:15:07;-9486.81;;;2.70;100.00
9460;BME280;4768;42.664;23.240;2023-03-04T03:17:34;-9487.53;;;2.73;100.00
9460;BME280;4768;42.664;23.240;2023-03-04T03:20:02;-9485.13;;;2.64;100.00
9460;BME280;4768;42.664;23.240;2023-03-04T03:22:29;-9481.44;;;2.51;100.00
9460;BME280;4768;42.664;23.240;2023-03-04T03:24:56;-9481.16;;;2.50;100.00
9460;BME280;4768;42.664;23.240;2023-03-04T03:27:23;-9480.75;;;2.49;100.00
9460;BME280;4768;42.664;23.240;2023-03-04T03:29:50;-9487.09;;;2.71;100.00
9460;BME280;4768;42.664;23.240;2023-03-04T03:32:17;-9486.41;;;2.69;100.00
9460;BME280;4768;42.664;23.240;2023-03-04T03:34:43;-9486.97;;;2.71;100.00
9460;BME280;4768;42.664;23.240;2023-03-04T03:37:12;-9491.19;;;2.86;100.00
9460;BME280;4768;42.664;23.240;2023-03-04T03:39:38;-9489.50;;;2.80;100.00
9460;BME280;4768;42.664;23.240;2023-03-04T03:42:05;-9484.69;;;2.63;100.00
9460;BME280;4768;42.664;23.240;2023-03-04T03:44:32;-9482.16;;;2.54;100.00
9460;BME280;4768;42.664;23.240;2023-03-04T03:46:59;-9482.72;;;2.56;100.00
9460;BME280;4768;42.664;23.240;2023-03-04T03:49:26;-9481.88;;;2.53;100.00
9460;BME280;4768;42.664;23.240;2023-03-04T03:51:52;-9481.31;;;2.51;100.00
9460;BME280;4768;42.664;23.240;2023-03-04T03:54:20;-9479.75;;;2.45;100.00
9460;BME280;4768;42.664;23.240;2023-03-04T03:56:47;-9477.94;;;2.39;100.00
9460;BME280;4768;42.664;23.240;2023-03-04T03:59:14;-9475.94;;;2.32;100.00
9460;BME280;4768;42.664;23.240;2023-03-04T04:01:41;-9476.09;;;2.33;100.00
9460;BME280;4768;42.664;23.240;2023-03-04T04:04:07;-9475.09;;;2.29;100.00
9460;BME280;4768;42.664;23.240;2023-03-04T04:06:34;-9474.41;;;2.27;100.00
9460;BME280;4768;42.664;23.240;2023-03-04T04:09:01;-9472.72;;;2.21;100.00
9460;BME280;4768;42.664;23.240;2023-03-04T04:11:29;-9469.19;;;2.08;100.00
9460;BME280;4768;42.664;23.240;2023-03-04T04:13:56;-9467.91;;;2.04;100.00
9460;BME280;4768;42.664;23.240;2023-03-04T04:16:23;-9467.34;;;2.02;100.00
9460;BME280;4768;42.664;23.240;2023-03-04T04:18:49;-9465.22;;;1.94;100.00
9460;BME280;4768;42.664;23.240;2023-03-04T04:21:16;-9462.56;;;1.85;100.00
9460;BME280;4768;42.664;23.240;2023-03-04T04:23:43;-9461.84;;;1.83;100.00
9460;BME280;4768;42.664;23.240;2023-03-04T04:26:10;-9461.56;;;1.82;100.00
9460;BME280;4768;42.664;23.240;2023-03-04T04:28:38;-9460.56;;;1.78;100.00
9460;BME280;4768;42.664;23.240;2023-03-04T04:31:06;-9460.72;;;1.79;100.00
9460;BME280;4768;42.664;23.240;2023-03-04T04:33:33;-9459.31;;;1.74;100.00
9460;BME280;4768;42.664;23.240;2023-03-04T04:36:00;-9459.72;;;1.75;100.00
9460;BME280;4768;42.664;23.240;2023-03-04T04:38:27;-9459.59;;;1.75;100.00
9460;BME280;4768;42.664;23.240;2023-03-04T04:40:56;-9456.78;;;1.65;100.00
9460;BME280;4768;42.664;23.240;2023-03-04T04:43:23;-9457.47;;;1.67;100.00
9460;BME280;4768;42.664;23.240;2023-03-04T04:45:51;-9457.91;;;1.69;100.00
9460;BME280;4768;42.664;23.240;2023-03-04T04:48:18;-9456.91;;;1.65;100.00
9460;BME280;4768;42.664;23.240;2023-03-04T04:50:45;-9457.91;;;1.69;100.00
9460;BME280;4768;42.664;23.240;2023-03-04T04:53:12;-9459.59;;;1.75;100.00
9460;BME280;4768;42.664;23.240;2023-03-04T04:55:38;-9460.56;;;1.78;100.00
9460;BME280;4768;42.664;23.240;2023-03-04T04:58:05;-9460.72;;;1.79;100.00
9460;BME280;4768;42.664;23.240;2023-03-04T05:00:32;-9460.56;;;1.78;100.00
9460;BME280;4768;42.664;23.240;2023-03-04T05:03:00;-9461.28;;;1.81;100.00
9460;BME280;4768;42.664;23.240;2023-03-04T05:05:27;-9460.28;;;1.77;100.00
9460;BME280;4768;42.664;23.240;2023-03-04T05:07:54;-9458.03;;;1.69;100.00
9460;BME280;4768;42.664;23.240;2023-03-04T05:10:21;-9457.34;;;1.67;100.00
9460;BME280;4768;42.664;23.240;2023-03-04T05:12:49;-9458.31;;;1.70;100.00
9460;BME280;4768;42.664;23.240;2023-03-04T05:15:16;-9459.03;;;1.73;100.00
9460;BME280;4768;42.664;23.240;2023-03-04T05:17:43;-9457.47;;;1.67;100.00
9460;BME280;4768;42.664;23.240;2023-03-04T05:20:12;-9456.22;;;1.63;100.00
9460;BME280;4768;42.664;23.240;2023-03-04T05:22:39;-9457.34;;;1.67;100.00
9460;BME280;4768;42.664;23.240;2023-03-04T05:25:05;-9459.31;;;1.74;100.00
9460;BME280;4768;42.664;23.240;2023-03-04T05:27:33;-9461.13;;;1.80;100.00
9460;BME280;4768;42.664;23.240;2023-03-04T05:29:59;-9463.69;;;1.89;100.00
9460;BME280;4768;42.664;23.240;2023-03-04T05:32:27;-9465.22;;;1.94;100.00
9460;BME280;4768;42.664;23.240;2023-03-04T05:34:53;-9466.50;;;1.99;100.00
9460;BME280;4768;42.664;23.240;2023-03-04T05:37:21;-9470.88;;;2.14;100.00
9460;BME280;4768;42.664;23.240;2023-03-04T05:39:48;-9471.44;;;2.16;100.00
9460;BME280;4768;42.664;23.240;2023-03-04T05:42:15;-9472.72;;;2.21;100.00
9460;BME280;4768;42.664;23.240;2023-03-04T05:44:42;-9474.97;;;2.29;100.00
9460;BME280;4768;42.664;23.240;2023-03-04T05:47:09;-9476.50;;;2.34;100.00
9460;BME280;4768;42.664;23.240;2023-03-04T05:49:35;-9479.19;;;2.43;100.00
9460;BME280;4768;42.664;23.240;2023-03-04T05:52:02;-9480.03;;;2.46;100.00
9460;BME280;4768;42.664;23.240;2023-03-04T05:54:30;-9482.44;;;2.55;100.00
9460;BME280;4768;42.664;23.240;2023-03-04T05:56:57;-9484.41;;;2.62;100.00
9460;BME280;4768;42.664;23.240;2023-03-04T05:59:24;-9486.81;;;2.70;100.00
9460;BME280;4768;42.664;23.240;2023-03-04T06:01:51;-9490.06;;;2.82;100.00
9460;BME280;4768;42.664;23.240;2023-03-04T06:04:17;-9492.47;;;2.90;100.00
9460;BME280;4768;42.664;23.240;2023-03-04T06:06:44;-9495.44;;;3.00;100.00
9460;BME280;4768;42.664;23.240;2023-03-04T06:09:12;-9497.69;;;3.08;100.00
9460;BME280;4768;42.664;23.240;2023-03-04T06:11:40;-9500.09;;;3.17;100.00
9460;BME280;4768;42.664;23.240;2023-03-04T06:14:07;-9502.34;;;3.25;100.00
9460;BME280;4768;42.664;23.240;2023-03-04T06:16:33;-9503.91;;;3.30;100.00
9460;BME280;4768;42.664;23.240;2023-03-04T06:19:00;-9508.00;;;3.44;100.00
9460;BME280;4768;42.664;23.240;2023-03-04T06:21:27;-9510.81;;;3.54;100.00
9460;BME280;4768;42.664;23.240;2023-03-04T06:23:54;-9509.69;;;3.50;100.00
9460;BME280;4768;42.664;23.240;2023-03-04T06:26:21;-9513.63;;;3.64;100.00
9460;BME280;4768;42.664;23.240;2023-03-04T06:28:49;-9517.16;;;3.77;100.00
9460;BME280;4768;42.664;23.240;2023-03-04T06:31:15;-9522.69;;;3.96;100.00
9460;BME280;4768;42.664;23.240;2023-03-04T06:33:42;-9519.44;;;3.84;100.00
9460;BME280;4768;42.664;23.240;2023-03-04T06:36:10;-9520.72;;;3.89;100.00
9460;BME280;4768;42.664;23.240;2023-03-04T06:38:37;-9520.84;;;3.89;100.00
9460;BME280;4768;42.664;23.240;2023-03-04T06:41:08;-9520.41;;;3.88;100.00
9460;BME280;4768;42.664;23.240;2023-03-04T06:43:36;-9518.31;;;3.81;100.00
9460;BME280;4768;42.664;23.240;2023-03-04T06:46:04;-9517.88;;;3.79;100.00
9460;BME280;4768;42.664;23.240;2023-03-04T06:48:31;-9516.88;;;3.76;100.00
9460;BME280;4768;42.664;23.240;2023-03-04T06:51:04;-9517.88;;;3.79;100.00
9460;BME280;4768;42.664;23.240;2023-03-04T06:53:30;-9522.69;;;3.96;100.00
9460;BME280;4768;42.664;23.240;2023-03-04T06:55:57;-9526.50;;;4.09;100.00
9460;BME280;4768;42.664;23.240;2023-03-04T06:58:24;-9526.91;;;4.11;100.00
9460;BME280;4768;42.664;23.240;2023-03-04T07:00:51;-9526.06;;;4.08;100.00
9460;BME280;4768;42.664;23.240;2023-03-04T07:03:19;-9524.78;;;4.03;100.00
9460;BME280;4768;42.664;23.240;2023-03-04T07:05:45;-9520.72;;;3.89;100.00
9460;BME280;4768;42.664;23.240;2023-03-04T07:08:12;-9522.41;;;3.95;100.00
9460;BME280;4768;42.664;23.240;2023-03-04T07:10:39;-9520.56;;;3.88;100.00
9460;BME280;4768;42.664;23.240;2023-03-04T07:13:06;-9521.97;;;3.93;100.00
9460;BME280;4768;42.664;23.240;2023-03-04T07:15:33;-9521.41;;;3.91;100.00
9460;BME280;4768;42.664;23.240;2023-03-04T07:18:00;-9525.22;;;4.05;100.00
9460;BME280;4768;42.664;23.240;2023-03-04T07:20:28;-9527.75;;;4.14;100.00
9460;BME280;4768;42.664;23.240;2023-03-04T07:22:55;-9522.41;;;3.95;100.00
9460;BME280;4768;42.664;23.240;2023-03-04T07:25:21;-9527.75;;;4.14;100.00
9460;BME280;4768;42.664;23.240;2023-03-04T07:27:48;-9527.75;;;4.14;100.00
9460;BME280;4768;42.664;23.240;2023-03-04T07:30:15;-9527.75;;;4.14;100.00
9460;BME280;4768;42.664;23.240;2023-03-04T07:32:42;-9527.91;;;4.14;100.00
9460;BME280;4768;42.664;23.240;2023-03-04T07:35:09;-9531.72;;;4.28;100.00
9460;BME280;4768;42.664;23.240;2023-03-04T07:37:37;-9533.28;;;4.33;100.00
9460;BME280;4768;42.664;23.240;2023-03-04T07:40:05;-9529.31;;;4.19;100.00
9460;BME280;4768;42.664;23.240;2023-03-04T07:42:33;-9532.72;;;4.31;100.00
9460;BME280;4768;42.664;23.240;2023-03-04T07:45:00;-9532.00;;;4.29;100.00
9460;BME280;4768;42.664;23.240;2023-03-04T07:47:27;-9534.84;;;4.38;100.00
9460;BME280;4768;42.664;23.240;2023-03-04T07:49:54;-9534.97;;;4.39;100.00
9460;BME280;4768;42.664;23.240;2023-03-04T07:52:21;-9535.13;;;4.39;100.00
9460;BME280;4768;42.664;23.240;2023-03-04T07:54:49;-9538.22;;;4.50;100.00
9460;BME280;4768;42.664;23.240;2023-03-04T07:57:16;-9541.47;;;4.62;100.00
9460;BME280;4768;42.664;23.240;2023-03-04T07:59:42;-9540.34;;;4.58;100.00
9460;BME280;4768;42.664;23.240;2023-03-04T08:02:09;-9545.00;;;4.74;100.00
9460;BME280;4768;42.664;23.240;2023-03-04T08:04:36;-9543.31;;;4.68;100.00
9460;BME280;4768;42.664;23.240;2023-03-04T08:07:03;-9537.38;;;4.47;100.00
9460;BME280;4768;42.664;23.240;2023-03-04T08:09:29;-9540.06;;;4.57;100.00
9460;BME280;4768;42.664;23.240;2023-03-04T08:11:58;-9538.94;;;4.53;100.00
9460;BME280;4768;42.664;23.240;2023-03-04T08:14:25;-9540.47;;;4.58;100.00
9460;BME280;4768;42.664;23.240;2023-03-04T08:16:51;-9538.38;;;4.51;100.00
9460;BME280;4768;42.664;23.240;2023-03-04T08:19:18;-9536.81;;;4.45;100.00
9460;BME280;4768;42.664;23.240;2023-03-04T08:21:45;-9540.19;;;4.57;100.00
9460;BME280;4768;42.664;23.240;2023-03-04T08:24:12;-9540.34;;;4.58;100.00
9460;BME280;4768;42.664;23.240;2023-03-04T08:26:41;-9542.59;;;4.66;100.00
9460;BME280;4768;42.664;23.240;2023-03-04T08:29:12;-9540.75;;;4.59;100.00
9460;BME280;4768;42.664;23.240;2023-03-04T08:31:39;-9541.47;;;4.62;100.00
9460;BME280;4768;42.664;23.240;2023-03-04T08:34:07;-9544.59;;;4.73;100.00
9460;BME280;4768;42.664;23.240;2023-03-04T08:36:34;-9543.03;;;4.67;100.00
9460;BME280;4768;42.664;23.240;2023-03-04T08:39:01;-9543.16;;;4.68;100.00
9460;BME280;4768;42.664;23.240;2023-03-04T08:41:28;-9541.63;;;4.62;100.00
9460;BME280;4768;42.664;23.240;2023-03-04T08:43:55;-9546.69;;;4.80;100.00
9460;BME280;4768;42.664;23.240;2023-03-04T08:46:23;-9545.84;;;4.77;100.00
9460;BME280;4768;42.664;23.240;2023-03-04T08:48:50;-9548.81;;;4.87;100.00
9460;BME280;4768;42.664;23.240;2023-03-04T08:51:17;-9552.50;;;5.00;100.00
9460;BME280;4768;42.664;23.240;2023-03-04T08:53:44;-9556.59;;;5.15;100.00
9460;BME280;4768;42.664;23.240;2023-03-04T08:56:12;-9554.47;;;5.07;100.00
9460;BME280;4768;42.664;23.240;2023-03-04T08:58:39;-9560.97;;;5.30;100.00
9460;BME280;4768;42.664;23.240;2023-03-04T09:01:08;-9560.00;;;5.27;100.00
9460;BME280;4768;42.664;23.240;2023-03-04T09:03:37;-9562.69;;;5.36;100.00
9460;BME280;4768;42.664;23.240;2023-03-04T09:06:04;-9568.19;;;5.55;100.00
9460;BME280;4768;42.664;23.240;2023-03-04T09:08:32;-9570.03;;;5.62;100.00
9460;BME280;4768;42.664;23.240;2023-03-04T09:10:59;-9575.69;;;5.81;100.00
9460;BME280;4768;42.664;23.240;2023-03-04T09:13:27;-9576.41;;;5.84;100.00
9460;BME280;4768;42.664;23.240;2023-03-04T09:15:55;-9583.34;;;6.08;100.00
9460;BME280;4768;42.664;23.240;2023-03-04T09:18:23;-9583.91;;;6.10;100.00
9460;BME280;4768;42.664;23.240;2023-03-04T09:20:51;-9572.44;;;5.70;100.00
9460;BME280;4768;42.664;23.240;2023-03-04T09:23:18;-9576.81;;;5.85;100.00
9460;BME280;4768;42.664;23.240;2023-03-04T09:25:46;-9573.00;;;5.72;100.00
9460;BME280;4768;42.664;23.240;2023-03-04T09:28:14;-9573.84;;;5.75;100.00
9460;BME280;4768;42.664;23.240;2023-03-04T09:30:41;-9572.88;;;5.72;100.00
9460;BME280;4768;42.664;23.240;2023-03-04T09:33:08;-9577.97;;;5.89;100.00
9460;BME280;4768;42.664;23.240;2023-03-04T09:35:35;-9583.19;;;6.08;100.00
9460;BME280;4768;42.664;23.240;2023-03-04T09:38:03;-9584.59;;;6.13;100.00
9460;BME280;4768;42.664;23.240;2023-03-04T09:40:37;-9588.00;;;6.24;100.00
9460;BME280;4768;42.664;23.240;2023-03-04T09:43:09;-9593.53;;;6.44;100.00
9460;BME280;4768;42.664;23.240;2023-03-04T09:45:42;-9594.50;;;6.47;100.00
9460;BME280;4768;42.664;23.240;2023-03-04T09:48:15;-9590.84;;;6.34;100.00
9460;BME280;4768;42.664;23.240;2023-03-04T09:50:51;-9596.91;;;6.56;100.00
9460;BME280;4768;42.664;23.240;2023-03-04T09:53:28;-9596.63;;;6.55;100.00
9460;BME280;4768;42.664;23.240;2023-03-04T09:55:59;-9589.97;;;6.31;100.00
9460;BME280;4768;42.664;23.240;2023-03-04T09:58:38;-9588.84;;;6.27;100.00
9460;BME280;4768;42.664;23.240;2023-03-04T10:01:11;-9581.22;;;6.01;100.00
9460;BME280;4768;42.664;23.240;2023-03-04T10:03:45;-9593.25;;;6.43;100.00
9460;BME280;4768;42.664;23.240;2023-03-04T10:06:16;-9599.91;;;6.66;100.00
9460;BME280;4768;42.664;23.240;2023-03-04T10:08:50;-9595.38;;;6.50;100.00
9460;BME280;4768;42.664;23.240;2023-03-04T10:11:23;-9592.81;;;6.41;100.00
9460;BME280;4768;42.664;23.240;2023-03-04T10:13:56;-9589.84;;;6.31;100.00
9460;BME280;4768;42.664;23.240;2023-03-04T10:16:30;-9586.03;;;6.18;100.00
9460;BME280;4768;42.664;23.240;2023-03-04T10:19:04;-9585.19;;;6.15;100.00
9460;BME280;4768;42.664;23.240;2023-03-04T10:21:39;-9584.47;;;6.12;100.00
9460;BME280;4768;42.664;23.240;2023-03-04T10:24:11;-9590.84;;;6.34;100.00
9460;BME280;4768;42.664;23.240;2023-03-04T10:26:41;-9593.38;;;6.43;100.00
9460;BME280;4768;42.664;23.240;2023-03-04T10:29:13;-9590.28;;;6.32;100.00
9460;BME280;4768;42.664;23.240;2023-03-04T10:31:41;-9592.25;;;6.39;100.00
9460;BME280;4768;42.664;23.240;2023-03-04T10:34:09;-9588.44;;;6.26;100.00
9460;BME280;4768;42.664;23.240;2023-03-04T10:36:52;-9596.78;;;6.55;100.00
9460;BME280;4768;42.664;23.240;2023-03-04T10:39:25;-9585.44;;;6.16;100.00
9460;BME280;4768;42.664;23.240;2023-03-04T10:41:56;-9587.72;;;6.24;100.00
9460;BME280;4768;42.664;23.240;2023-03-04T10:44:23;-9592.53;;;6.40;100.00
9460;BME280;4768;42.664;23.240;2023-03-04T10:46:52;-9596.34;;;6.54;100.00
9460;BME280;4768;42.664;23.240;2023-03-04T10:49:20;-9589.69;;;6.30;100.00
9460;BME280;4768;42.664;23.240;2023-03-04T10:51:51;-9589.84;;;6.31;100.00
9460;BME280;4768;42.664;23.240;2023-03-04T10:54:25;-9585.88;;;6.17;100.00
9460;BME280;4768;42.664;23.240;2023-03-04T10:56:56;-9579.78;;;5.96;100.00
9460;BME280;4768;42.664;23.240;2023-03-04T10:59:30;-9584.88;;;6.14;100.00
9460;BME280;4768;42.664;23.240;2023-03-04T11:01:58;-9592.81;;;6.41;100.00
9460;BME280;4768;42.664;23.240;2023-03-04T11:04:26;-9591.53;;;6.37;100.00
9460;BME280;4768;42.664;23.240;2023-03-04T11:06:57;-9594.81;;;6.48;100.00
9460;BME280;4768;42.664;23.240;2023-03-04T11:09:27;-9591.41;;;6.36;100.00
9460;BME280;4768;42.664;23.240;2023-03-04T11:11:56;-9585.44;;;6.16;100.00
9460;BME280;4768;42.664;23.240;2023-03-04T11:14:26;-9588.84;;;6.27;100.00
9460;BME280;4768;42.664;23.240;2023-03-04T11:16:55;-9592.97;;;6.42;100.00
9460;BME280;4768;42.664;23.240;2023-03-04T11:19:27;-9592.38;;;6.40;100.00
9460;BME280;4768;42.664;23.240;2023-03-04T11:21:57;-9584.59;;;6.13;100.00
9460;BME280;4768;42.664;23.240;2023-03-04T11:24:27;-9587.56;;;6.23;100.00
9460;BME280;4768;42.664;23.240;2023-03-04T11:26:59;-9593.09;;;6.42;100.00
9460;BME280;4768;42.664;23.240;2023-03-04T11:29:30;-9595.66;;;6.51;100.00
9460;BME280;4768;42.664;23.240;2023-03-04T11:32:04;-9585.88;;;6.17;100.00
9460;BME280;4768;42.664;23.240;2023-03-04T11:34:37;-9587.28;;;6.22;100.00
9460;BME280;4768;42.664;23.240;2023-03-04T11:37:07;-9583.63;;;6.09;100.00
9460;BME280;4768;42.664;23.240;2023-03-04T11:39:39;-9587.56;;;6.23;100.00
9460;BME280;4768;42.664;23.240;2023-03-04T11:42:17;-9597.19;;;6.57;100.00
9460;BME280;4768;42.664;23.240;2023-03-04T11:44:46;-9599.59;;;6.65;100.00
9460;BME280;4768;42.664;23.240;2023-03-04T11:47:27;-9602.44;;;6.75;100.00
9460;BME280;4768;42.664;23.240;2023-03-04T11:50:10;-9600.88;;;6.70;100.00
9460;BME280;4768;42.664;23.240;2023-03-04T11:53:14;-9616.75;;;7.25;100.00
9460;BME280;4768;42.664;23.240;2023-03-04T11:55:49;-9616.16;;;7.23;100.00
9460;BME280;4768;42.664;23.240;2023-03-04T11:58:43;-9616.47;;;7.24;100.00
9460;BME280;4768;42.664;23.240;2023-03-04T12:01:22;-9616.75;;;7.25;100.00
9460;BME280;4768;42.664;23.240;2023-03-04T12:04:10;-9620.13;;;7.37;100.00
9460;BME280;4768;42.664;23.240;2023-03-04T12:06:48;-9619.72;;;7.35;100.00
9460;BME280;4768;42.664;23.240;2023-03-04T12:09:38;-9620.00;;;7.36;100.00
9460;BME280;4768;42.664;23.240;2023-03-04T12:12:22;-9621.69;;;7.42;100.00
9460;BME280;4768;42.664;23.240;2023-03-04T12:15:01;-9619.56;;;7.35;100.00
9460;BME280;4768;42.664;23.240;2023-03-04T12:17:52;-9608.38;;;6.96;100.00
9460;BME280;4768;42.664;23.240;2023-03-04T12:20:36;-9607.81;;;6.94;100.00
9460;BME280;4768;42.664;23.240;2023-03-04T12:23:15;-9616.03;;;7.22;100.00
9460;BME280;4768;42.664;23.240;2023-03-04T12:25:50;-9621.28;;;7.41;100.00
9460;BME280;4768;42.664;23.240;2023-03-04T12:28:38;-9621.56;;;7.42;100.00
9460;BME280;4768;42.664;23.240;2023-03-04T12:31:26;-9611.66;;;7.07;100.00
9460;BME280;4768;42.664;23.240;2023-03-04T12:34:25;-9609.66;;;7.00;100.00
9460;BME280;4768;42.664;23.240;2023-03-04T12:37:11;-9606.25;;;6.88;100.00
9460;BME280;4768;42.664;23.240;2023-03-04T12:39:50;-9610.38;;;7.03;100.00
9460;BME280;4768;42.664;23.240;2023-03-04T12:42:27;-9611.06;;;7.05;100.00
9460;BME280;4768;42.664;23.240;2023-03-04T12:45:06;-9614.03;;;7.16;100.00
9460;BME280;4768;42.664;23.240;2023-03-04T12:47:46;-9611.91;;;7.08;100.00
9460;BME280;4768;42.664;23.240;2023-03-04T12:50:26;-9615.19;;;7.20;100.00
9460;BME280;4768;42.664;23.240;2023-03-04T12:53:01;-9616.03;;;7.22;100.00
9460;BME280;4768;42.664;23.240;2023-03-04T12:55:36;-9620.13;;;7.37;100.00
9460;BME280;4768;42.664;23.240;2023-03-04T12:58:03;-9615.47;;;7.21;100.00
9460;BME280;4768;42.664;23.240;2023-03-04T13:00:43;-9614.03;;;7.16;100.00
9460;BME280;4768;42.664;23.240;2023-03-04T13:03:19;-9615.75;;;7.21;100.00
9460;BME280;4768;42.664;23.240;2023-03-04T13:05:59;-9612.06;;;7.09;100.00
9460;BME280;4768;42.664;23.240;2023-03-04T13:08:35;-9612.91;;;7.12;100.00
9460;BME280;4768;42.664;23.240;2023-03-04T13:14:27;-9613.19;;;7.13;100.00
9460;BME280;4768;42.664;23.240;2023-03-04T13:16:56;-9612.06;;;7.09;100.00
9460;BME280;4768;42.664;23.240;2023-03-04T13:19:43;-9606.97;;;6.91;100.00
9460;BME280;4768;42.664;23.240;2023-03-04T13:22:41;-9609.81;;;7.01;100.00
9460;BME280;4768;42.664;23.240;2023-03-04T13:25:38;-9610.09;;;7.02;100.00